Time;durP1;ratioP1;P1;durP2;ratioP2;P2;SDS_P1;SDS_P2;PMS_P1;PMS_P2;Temp;Humidity;BMP_temperature;BMP_pressure;BME280_temperature;BME280_humidity;BME280_pressure;Samples;Min_cycle;Max_cycle;Signal;HPM_P1;HPM_P2
2023/05/09 00:01:30;;;;;;;;;;;;;;;21.24;51.91;101756.91;5136481;27;19972;-69
2023/05/09 00:03:55;;;;;;;;;;;;;;;21.23;52.02;101749.78;5131624;27;20333;-69
2023/05/09 00:06:20;;;;;;;;;;;;;;;21.23;51.82;101747.91;5133186;27;19915;-69
2023/05/09 00:08:45;;;;;;;;;;;;;;;21.23;51.79;101739.81;5113145;28;19919;-69
2023/05/09 00:11:11;;;;;;;;;;;;;;;21.22;52.08;101730.00;5130303;27;19958;-69
2023/05/09 00:13:36;;;;;;;;;;;;;;;21.22;52.05;101735.41;5113580;27;19939;-69
2023/05/09 00:16:02;;;;;;;;;;;;;;;21.21;52.06;101720.22;5131398;27;20016;-69
2023/05/09 00:18:29;;;;;;;;;;;;;;;21.22;51.84;101727.31;5130398;27;19915;-69
2023/05/09 00:20:55;;;;;;;;;;;;;;;21.21;51.95;101722.06;5131867;27;20498;-69
2023/05/09 00:23:20;;;;;;;;;;;;;;;21.21;51.92;101733.72;5135359;27;19949;-69
2023/05/09 00:25:46;;;;;;;;;;;;;;;21.21;51.96;101725.63;5130967;27;19912;-69
2023/05/09 00:28:11;;;;;;;;;;;;;;;21.21;51.74;101724.78;5138620;27;20003;-69
2023/05/09 00:30:36;;;;;;;;;;;;;;;21.20;51.66;101720.38;5129358;27;19962;-69
2023/05/09 00:33:01;;;;;;;;;;;;;;;21.19;51.93;101733.03;5134265;27;20388;-69
2023/05/09 00:35:26;;;;;;;;;;;;;;;21.18;51.68;101717.81;5131757;27;19938;-69
2023/05/09 00:37:52;;;;;;;;;;;;;;;21.18;51.87;101709.72;5129587;27;19912;-69
2023/05/09 00:40:17;;;;;;;;;;;;;;;21.18;51.63;101712.41;5131543;27;19919;-69
2023/05/09 00:42:42;;;;;;;;;;;;;;;21.18;51.89;101712.41;5130150;27;19912;-69
2023/05/09 00:45:08;;;;;;;;;;;;;;;21.18;51.60;101703.47;5128406;27;19975;-69
2023/05/09 00:47:33;;;;;;;;;;;;;;;21.17;51.61;101707.19;5129976;27;19971;-69
2023/05/09 00:49:58;;;;;;;;;;;;;;;21.17;51.86;101704.47;5135382;27;19964;-69
2023/05/09 00:52:24;;;;;;;;;;;;;;;21.16;51.95;101700.09;5129626;27;19958;-69
2023/05/09 00:54:50;;;;;;;;;;;;;;;21.15;51.68;101698.38;5134341;28;19920;-69
2023/05/09 00:57:16;;;;;;;;;;;;;;;21.15;51.67;101701.94;5114258;28;19919;-69
2023/05/09 00:59:41;;;;;;;;;;;;;;;21.15;51.79;101698.38;5132785;28;19919;-69
2023/05/09 01:02:06;;;;;;;;;;;;;;;21.14;51.75;101691.28;5124380;28;19907;-69
2023/05/09 01:04:32;;;;;;;;;;;;;;;21.13;51.85;101682.31;5129647;28;20565;-69
2023/05/09 01:07:01;;;;;;;;;;;;;;;21.13;51.66;101681.47;5112236;28;19912;-69
2023/05/09 01:09:47;;;;;;;;;;;;;;;21.12;51.93;101675.22;5110130;28;19922;-69
2023/05/09 01:12:27;;;;;;;;;;;;;;;21.12;51.67;101677.94;5127949;28;19918;-69
2023/05/09 01:14:52;;;;;;;;;;;;;;;21.11;51.67;101668.13;5110857;28;19974;-69
2023/05/09 01:17:20;;;;;;;;;;;;;;;21.11;51.77;101661.84;5134404;27;20299;-69
2023/05/09 01:19:55;;;;;;;;;;;;;;;21.10;51.73;101661.00;5133692;27;20276;-69
2023/05/09 01:22:20;;;;;;;;;;;;;;;21.10;51.91;101660.16;5141230;27;19916;-69
2023/05/09 01:24:58;;;;;;;;;;;;;;;21.10;51.68;101661.00;5125863;27;20446;-69
2023/05/09 01:27:45;;;;;;;;;;;;;;;21.09;51.68;101650.38;5138585;27;19911;-69
2023/05/09 01:30:11;;;;;;;;;;;;;;;21.09;51.56;101645.81;5116477;27;19941;-69
2023/05/09 01:32:37;;;;;;;;;;;;;;;21.08;51.75;101656.78;5133177;27;19912;-69
2023/05/09 01:35:03;;;;;;;;;;;;;;;21.08;51.57;101651.38;5118191;27;19916;-69
2023/05/09 01:37:29;;;;;;;;;;;;;;;21.08;51.49;101654.09;5129429;27;20432;-69
2023/05/09 01:39:55;;;;;;;;;;;;;;;21.07;51.77;101644.25;5115256;27;19920;-69
2023/05/09 01:42:20;;;;;;;;;;;;;;;21.06;51.66;101646.13;5114322;27;19989;-69
2023/05/09 01:44:46;;;;;;;;;;;;;;;21.06;51.73;101645.28;5118414;27;19911;-69
2023/05/09 01:47:11;;;;;;;;;;;;;;;21.07;51.79;101644.25;5133135;27;19912;-69
2023/05/09 01:49:36;;;;;;;;;;;;;;;21.05;51.56;101639.03;5119946;27;19958;-69
2023/05/09 01:52:07;;;;;;;;;;;;;;;21.06;51.70;101640.72;5133297;27;19911;-69
2023/05/09 01:54:32;;;;;;;;;;;;;;;21.06;51.47;101645.28;5135638;27;19919;-69
2023/05/09 01:56:57;;;;;;;;;;;;;;;21.05;51.53;101638.19;5137225;27;19916;-69
2023/05/09 01:59:23;;;;;;;;;;;;;;;21.04;51.64;101639.22;5129882;27;19911;-69
2023/05/09 02:01:48;;;;;;;;;;;;;;;21.05;51.62;101636.31;5117016;27;19923;-69
2023/05/09 02:04:14;;;;;;;;;;;;;;;21.04;51.63;101631.94;5131524;27;19975;-69
2023/05/09 02:06:39;;;;;;;;;;;;;;;21.03;51.59;101627.56;5132007;27;19919;-69
2023/05/09 02:09:04;;;;;;;;;;;;;;;21.03;51.76;101638.38;5116187;28;19912;-69
2023/05/09 02:11:29;;;;;;;;;;;;;;;21.03;51.50;101637.53;5134697;27;19968;-69
2023/05/09 02:13:55;;;;;;;;;;;;;;;21.03;51.65;101634.81;5133177;27;19930;-69
2023/05/09 02:16:20;;;;;;;;;;;;;;;21.02;51.60;101633.94;5115315;27;19919;-69
2023/05/09 02:18:45;;;;;;;;;;;;;;;21.02;51.51;101633.09;5124909;27;19923;-69
2023/05/09 02:21:11;;;;;;;;;;;;;;;21.02;51.41;101627.69;5134320;27;21108;-69
2023/05/09 02:23:36;;;;;;;;;;;;;;;21.02;51.45;101627.69;5121499;27;19912;-69
2023/05/09 02:26:01;;;;;;;;;;;;;;;21.01;51.50;101624.16;5131473;27;19937;-69
2023/05/09 02:28:26;;;;;;;;;;;;;;;21.01;51.40;101621.44;5136543;27;20305;-69
2023/05/09 02:30:51;;;;;;;;;;;;;;;21.01;51.33;101628.72;5114341;28;19916;-69
2023/05/09 02:33:17;;;;;;;;;;;;;;;21.00;51.57;101624.31;5128848;27;19915;-69
2023/05/09 02:35:43;;;;;;;;;;;;;;;20.99;51.71;101617.22;5132527;27;19911;-69
2023/05/09 02:38:08;;;;;;;;;;;;;;;20.99;51.50;101609.97;5127663;27;19915;-69
2023/05/09 02:40:33;;;;;;;;;;;;;;;20.99;51.62;101619.94;5131153;27;19912;-69
2023/05/09 02:42:58;;;;;;;;;;;;;;;20.98;51.44;101605.53;5115275;27;19923;-69
2023/05/09 02:45:24;;;;;;;;;;;;;;;20.97;51.33;101604.69;5135237;27;19915;-69
2023/05/09 02:47:49;;;;;;;;;;;;;;;20.96;51.47;101603.03;5132627;27;20013;-69
2023/05/09 02:50:14;;;;;;;;;;;;;;;20.97;51.33;101595.75;5138471;27;20341;-69
2023/05/09 02:52:39;;;;;;;;;;;;;;;20.97;51.28;101598.47;5134567;27;20007;-69
2023/05/09 02:55:06;;;;;;;;;;;;;;;20.96;51.51;101592.22;5137006;27;19974;-69
2023/05/09 02:57:31;;;;;;;;;;;;;;;20.95;51.67;101587.81;5134533;27;19942;-69
2023/05/09 02:59:56;;;;;;;;;;;;;;;20.96;51.47;101594.91;5131603;27;19916;-69
2023/05/09 03:02:22;;;;;;;;;;;;;;;20.95;51.32;101581.56;5133606;27;19922;-69
2023/05/09 03:04:47;;;;;;;;;;;;;;;20.94;51.46;101574.44;5132865;27;19930;-69
2023/05/09 03:07:13;;;;;;;;;;;;;;;20.95;51.39;101581.56;5130675;27;19912;-69
2023/05/09 03:09:38;;;;;;;;;;;;;;;20.95;51.67;101576.16;5131391;27;20056;-69
2023/05/09 03:12:03;;;;;;;;;;;;;;;20.94;51.63;101578.03;5135419;27;20356;-69
2023/05/09 03:14:28;;;;;;;;;;;;;;;20.94;51.21;101571.75;5131377;27;19941;-69
2023/05/09 03:16:53;;;;;;;;;;;;;;;20.94;51.45;101574.44;5136317;27;19920;-69
2023/05/09 03:19:19;;;;;;;;;;;;;;;20.93;51.61;101573.59;5134167;27;19920;-69
2023/05/09 03:21:44;;;;;;;;;;;;;;;20.92;51.37;101574.63;5132522;27;19923;-69
2023/05/09 03:24:09;;;;;;;;;;;;;;;20.93;51.31;101572.75;5136063;27;19919;-69
2023/05/09 03:26:34;;;;;;;;;;;;;;;20.92;51.27;101563.81;5131617;27;19919;-69
2023/05/09 03:29:00;;;;;;;;;;;;;;;20.92;51.34;101560.28;5132895;27;19978;-70
2023/05/09 03:31:25;;;;;;;;;;;;;;;20.91;51.48;101562.13;5131377;27;19971;-70
2023/05/09 03:33:50;;;;;;;;;;;;;;;20.92;51.39;101562.97;5132386;27;19916;-69
2023/05/09 03:36:16;;;;;;;;;;;;;;;20.91;51.53;101555.88;5130831;27;19918;-69
2023/05/09 03:38:41;;;;;;;;;;;;;;;20.91;51.42;101553.19;5133093;27;19912;-69
2023/05/09 03:41:06;;;;;;;;;;;;;;;20.90;51.51;101552.34;5129170;27;19967;-69
2023/05/09 03:43:31;;;;;;;;;;;;;;;20.90;51.30;101548.78;5133348;27;19923;-70
2023/05/09 03:45:56;;;;;;;;;;;;;;;20.90;51.19;101551.50;5135959;27;19915;-69
2023/05/09 03:48:22;;;;;;;;;;;;;;;20.88;51.29;101540.81;5131654;27;19922;-69
2023/05/09 03:50:47;;;;;;;;;;;;;;;20.89;51.33;101536.25;5140097;27;20505;-69
2023/05/09 03:53:12;;;;;;;;;;;;;;;20.89;51.28;101533.56;5129780;27;19916;-69
2023/05/09 03:55:37;;;;;;;;;;;;;;;20.88;51.17;101531.88;5132077;27;19918;-69
2023/05/09 03:58:03;;;;;;;;;;;;;;;20.88;51.49;101534.59;5132966;27;19919;-69
2023/05/09 04:00:28;;;;;;;;;;;;;;;20.87;51.42;101544.56;5130897;27;19916;-69
2023/05/09 04:02:53;;;;;;;;;;;;;;;20.88;51.49;101540.81;5133188;27;19918;-69
2023/05/09 04:05:18;;;;;;;;;;;;;;;20.87;51.36;101539.16;5130337;27;20341;-69
2023/05/09 04:07:43;;;;;;;;;;;;;;;20.87;51.22;101543.72;5131006;27;19947;-70
2023/05/09 04:10:09;;;;;;;;;;;;;;;20.86;51.30;101544.72;5124650;27;19911;-70
2023/05/09 04:12:34;;;;;;;;;;;;;;;20.87;51.37;101538.31;5137217;27;20424;-70
2023/05/09 04:14:59;;;;;;;;;;;;;;;20.87;51.34;101532.91;5128753;27;19920;-70
2023/05/09 04:17:25;;;;;;;;;;;;;;;20.88;51.62;101540.00;5137617;27;19927;-70
2023/05/09 04:19:50;;;;;;;;;;;;;;;20.87;51.47;101539.16;5132783;27;19919;-70
2023/05/09 04:22:15;;;;;;;;;;;;;;;20.87;51.46;101530.19;5130640;27;19915;-69
2023/05/09 04:24:41;;;;;;;;;;;;;;;20.87;51.36;101524.78;5134579;27;19975;-71
2023/05/09 04:27:06;;;;;;;;;;;;;;;20.87;51.62;101522.09;5130342;27;19917;-71
2023/05/09 04:29:32;;;;;;;;;;;;;;;20.87;51.56;101522.09;5130180;27;19911;-71
2023/05/09 04:31:58;;;;;;;;;;;;;;;20.86;51.92;101518.53;5127914;27;19916;-72
2023/05/09 04:34:24;;;;;;;;;;;;;;;20.87;52.05;101509.41;5131819;27;19920;-72
2023/05/09 04:36:50;;;;;;;;;;;;;;;20.87;52.01;101509.41;5130932;28;19912;-72
2023/05/09 04:39:16;;;;;;;;;;;;;;;20.86;52.15;101513.13;5133083;27;19922;-72
2023/05/09 04:41:43;;;;;;;;;;;;;;;20.87;52.14;101508.56;5129652;27;19912;-74
2023/05/09 04:44:08;;;;;;;;;;;;;;;20.87;52.27;101511.28;5135239;27;20544;-72
2023/05/09 04:46:33;;;;;;;;;;;;;;;20.86;52.26;101510.44;5133973;27;19911;-73
2023/05/09 04:48:58;;;;;;;;;;;;;;;20.87;52.11;101508.56;5132253;27;19923;-71
2023/05/09 04:51:23;;;;;;;;;;;;;;;20.86;52.20;101505.03;5133261;27;19912;-71
2023/05/09 04:53:49;;;;;;;;;;;;;;;20.86;52.15;101505.03;5130999;27;20010;-71
2023/05/09 04:56:14;;;;;;;;;;;;;;;20.86;52.32;101513.13;5132747;28;19926;-73
2023/05/09 04:58:40;;;;;;;;;;;;;;;20.87;52.61;101504.00;5131267;28;19927;-72
2023/05/09 05:01:05;;;;;;;;;;;;;;;20.86;52.73;101502.31;5132069;28;19915;-72
2023/05/09 05:03:30;;;;;;;;;;;;;;;20.85;52.46;101492.50;5113699;28;19922;-72
2023/05/09 05:05:55;;;;;;;;;;;;;;;20.87;52.67;101500.47;5130692;28;19974;-73
2023/05/09 05:08:21;;;;;;;;;;;;;;;20.86;52.47;101499.63;5129550;28;19912;-71
2023/05/09 05:10:47;;;;;;;;;;;;;;;20.86;52.53;101491.50;5129804;28;19962;-73
2023/05/09 05:13:13;;;;;;;;;;;;;;;20.87;52.82;101495.91;5136377;28;19959;-72
2023/05/09 05:15:38;;;;;;;;;;;;;;;20.88;52.88;101491.34;5130607;28;19960;-73
2023/05/09 05:18:03;;;;;;;;;;;;;;;20.88;52.90;101494.03;5133730;28;20014;-72
2023/05/09 05:20:28;;;;;;;;;;;;;;;20.87;52.63;101495.91;5132478;28;19941;-71
2023/05/09 05:22:53;;;;;;;;;;;;;;;20.88;52.81;101488.63;5130165;28;19915;-72
2023/05/09 05:25:19;;;;;;;;;;;;;;;20.88;52.62;101486.78;5131645;28;19912;-72
2023/05/09 05:27:45;;;;;;;;;;;;;;;20.88;52.70;101485.94;5130577;28;19916;-72
2023/05/09 05:30:10;;;;;;;;;;;;;;;20.89;52.63;101479.50;5128951;28;19915;-72
2023/05/09 05:32:35;;;;;;;;;;;;;;;20.88;52.77;101480.53;5131815;28;20276;-72
2023/05/09 05:35:02;;;;;;;;;;;;;;;20.88;52.76;101469.72;5131892;28;19921;-73
2023/05/09 05:37:27;;;;;;;;;;;;;;;20.89;52.60;101476.81;5125630;28;20320;-73
2023/05/09 05:39:53;;;;;;;;;;;;;;;20.89;52.87;101476.81;5120401;28;19947;-71
2023/05/09 05:42:18;;;;;;;;;;;;;;;20.89;52.66;101466.81;5129970;28;20057;-71
2023/05/09 05:44:43;;;;;;;;;;;;;;;20.89;52.75;101464.13;5132885;28;19912;-71
2023/05/09 05:47:08;;;;;;;;;;;;;;;20.88;52.69;101457.03;5132391;28;19915;-72
2023/05/09 05:49:33;;;;;;;;;;;;;;;20.88;52.82;101454.34;5133878;27;19919;-72
2023/05/09 05:51:59;;;;;;;;;;;;;;;20.88;52.63;101451.63;5117075;28;19919;-72
2023/05/09 05:54:24;;;;;;;;;;;;;;;20.89;52.74;101452.47;5130344;28;19919;-72
2023/05/09 05:56:49;;;;;;;;;;;;;;;20.88;52.94;101448.94;5130052;28;19962;-71
2023/05/09 05:59:15;;;;;;;;;;;;;;;20.89;52.73;101447.06;5128869;28;20767;-72
2023/05/09 06:01:40;;;;;;;;;;;;;;;20.89;52.66;101447.06;5134164;28;19986;-71
2023/05/09 06:04:05;;;;;;;;;;;;;;;20.89;52.67;101447.06;5132013;27;19912;-72
2023/05/09 06:06:31;;;;;;;;;;;;;;;20.89;52.62;101447.06;5130211;27;19920;-73
2023/05/09 06:08:56;;;;;;;;;;;;;;;20.89;52.93;101447.06;5110671;28;19972;-74
2023/05/09 06:11:21;;;;;;;;;;;;;;;20.88;52.76;101445.38;5117640;27;19980;-73
2023/05/09 06:13:46;;;;;;;;;;;;;;;20.88;52.84;101440.81;5120115;27;19926;-74
2023/05/09 06:16:11;;;;;;;;;;;;;;;20.88;52.87;101430.00;5133776;27;19926;-71
2023/05/09 06:18:38;;;;;;;;;;;;;;;20.88;52.82;101434.56;5138587;27;19912;-72
2023/05/09 06:21:04;;;;;;;;;;;;;;;20.88;52.68;101423.75;5134194;27;19912;-72
2023/05/09 06:23:29;;;;;;;;;;;;;;;20.87;52.82;101414.81;5117436;28;19951;-74
2023/05/09 06:25:54;;;;;;;;;;;;;;;20.88;52.43;101408.38;5132580;27;19919;-74
2023/05/09 06:28:19;;;;;;;;;;;;;;;20.88;52.55;101402.97;5131760;27;19978;-72
2023/05/09 06:30:44;;;;;;;;;;;;;;;20.88;52.67;101408.38;5130214;27;19920;-72
2023/05/09 06:33:10;;;;;;;;;;;;;;;20.88;52.43;101404.84;5134160;27;19920;-72
2023/05/09 06:35:35;;;;;;;;;;;;;;;20.88;52.48;101399.44;5133871;27;19926;-72
2023/05/09 06:38:00;;;;;;;;;;;;;;;20.88;52.40;101404.84;5136006;27;19915;-72
2023/05/09 06:40:25;;;;;;;;;;;;;;;20.88;52.56;101404.84;5140429;27;19912;-73
2023/05/09 06:42:50;;;;;;;;;;;;;;;20.88;52.70;101404.84;5132210;27;19960;-73
2023/05/09 06:45:16;;;;;;;;;;;;;;;20.87;52.70;101405.88;5137855;27;19912;-72
2023/05/09 06:47:41;;;;;;;;;;;;;;;20.87;52.40;101395.91;5134039;27;19912;-72
2023/05/09 06:50:06;;;;;;;;;;;;;;;20.87;52.38;101395.06;5135207;27;19919;-72
2023/05/09 06:52:31;;;;;;;;;;;;;;;20.87;52.62;101390.50;5131195;27;20411;-72
2023/05/09 06:54:57;;;;;;;;;;;;;;;20.87;52.52;101384.25;5132508;27;19994;-72
2023/05/09 06:57:22;;;;;;;;;;;;;;;20.86;52.31;101378.00;5132188;27;19918;-72
2023/05/09 06:59:47;;;;;;;;;;;;;;;20.87;52.39;101378.84;5134711;27;19912;-73
2023/05/09 07:02:12;;;;;;;;;;;;;;;20.88;52.51;101369.69;5119662;27;19960;-72
2023/05/09 07:04:38;;;;;;;;;;;;;;;20.87;52.48;101368.88;5134889;27;19916;-72
2023/05/09 07:07:03;;;;;;;;;;;;;;;20.87;52.34;101366.16;5139736;27;20364;-72
2023/05/09 07:09:28;;;;;;;;;;;;;;;20.87;52.48;101368.03;5133530;27;19920;-73
2023/05/09 07:11:53;;;;;;;;;;;;;;;20.88;52.40;101361.59;5132393;27;19912;-73
2023/05/09 07:14:19;;;;;;;;;;;;;;;20.88;52.54;101362.44;5135449;27;19916;-73
2023/05/09 07:16:45;;;;;;;;;;;;;;;20.88;52.37;101351.63;5130429;27;19923;-72
2023/05/09 07:19:10;;;;;;;;;;;;;;;20.88;52.39;101350.78;5126678;27;19938;-72
2023/05/09 07:21:35;;;;;;;;;;;;;;;20.88;52.26;101340.81;5131131;27;19911;-72
2023/05/09 07:24:01;;;;;;;;;;;;;;;20.89;52.13;101349.75;5133554;27;19916;-72
2023/05/09 07:26:26;;;;;;;;;;;;;;;20.89;52.16;101345.19;5131023;27;19918;-72
2023/05/09 07:28:51;;;;;;;;;;;;;;;20.89;52.01;101347.91;5135172;27;20341;-72
2023/05/09 07:31:16;;;;;;;;;;;;;;;20.90;51.93;101348.78;5130442;27;19911;-72
2023/05/09 07:33:42;;;;;;;;;;;;;;;20.90;51.89;101343.38;5136583;27;19941;-71
2023/05/09 07:36:11;;;;;;;;;;;;;;;20.90;52.24;101340.66;5136353;27;20011;-72
2023/05/09 07:38:37;;;;;;;;;;;;;;;20.90;51.89;101332.56;5131236;27;19912;-72
2023/05/09 07:41:02;;;;;;;;;;;;;;;20.89;52.01;101337.09;5116661;27;19916;-73
2023/05/09 07:43:27;;;;;;;;;;;;;;;20.90;52.11;101329.84;5130524;27;19916;-73
2023/05/09 07:45:52;;;;;;;;;;;;;;;20.89;52.00;101325.44;5132762;27;19912;-73
2023/05/09 07:48:18;;;;;;;;;;;;;;;20.89;52.03;101326.28;5132982;27;19912;-73
2023/05/09 07:50:43;;;;;;;;;;;;;;;20.90;52.23;101329.84;5133985;27;19977;-73
2023/05/09 07:53:08;;;;;;;;;;;;;;;20.89;52.18;101323.56;5128826;27;19911;-73
2023/05/09 07:55:34;;;;;;;;;;;;;;;20.90;51.91;101332.56;5134354;27;19911;-72
2023/05/09 07:57:59;;;;;;;;;;;;;;;20.90;51.93;101319.03;5130700;27;19930;-73
2023/05/09 08:00:24;;;;;;;;;;;;;;;20.90;51.80;101317.19;5126686;27;19922;-72
2023/05/09 08:02:53;;;;;;;;;;;;;;;20.91;51.74;101309.91;5136633;27;19979;-71
2023/05/09 08:05:18;;;;;;;;;;;;;;;20.91;52.05;101309.91;5131540;27;19911;-71
2023/05/09 08:07:43;;;;;;;;;;;;;;;20.90;52.13;101303.66;5136231;27;19958;-71
2023/05/09 08:10:08;;;;;;;;;;;;;;;20.91;51.86;101297.22;5131477;27;19979;-73
2023/05/09 08:12:33;;;;;;;;;;;;;;;20.91;51.69;101296.41;5112061;28;19912;-73
2023/05/09 08:14:59;;;;;;;;;;;;;;;20.92;52.10;101289.97;5117433;27;19916;-72
2023/05/09 08:17:24;;;;;;;;;;;;;;;20.91;51.71;101291.81;5130350;27;19923;-72
2023/05/09 08:19:49;;;;;;;;;;;;;;;20.90;52.03;101290.16;5132813;27;19919;-72
2023/05/09 08:22:15;;;;;;;;;;;;;;;20.92;51.65;101285.41;5131210;27;19922;-72
2023/05/09 08:24:40;;;;;;;;;;;;;;;20.93;51.66;101283.53;5114048;27;19975;-72
2023/05/09 08:27:05;;;;;;;;;;;;;;;20.92;51.63;101271.88;5131732;27;19962;-72
2023/05/09 08:29:31;;;;;;;;;;;;;;;20.92;51.66;101271.03;5136804;27;19922;-73
2023/05/09 08:31:56;;;;;;;;;;;;;;;20.93;51.78;101272.72;5129751;27;19912;-72
2023/05/09 08:34:21;;;;;;;;;;;;;;;20.93;51.61;101268.16;5136108;27;20395;-73
2023/05/09 08:36:47;;;;;;;;;;;;;;;20.93;51.50;101260.03;5133715;27;20057;-72
2023/05/09 08:39:12;;;;;;;;;;;;;;;20.94;51.77;101260.88;5129414;27;20027;-73
2023/05/09 08:41:37;;;;;;;;;;;;;;;20.93;51.51;101256.50;5133943;27;20006;-72
2023/05/09 08:44:02;;;;;;;;;;;;;;;20.93;51.72;101257.34;5130719;27;19912;-72
2023/05/09 08:46:30;;;;;;;;;;;;;;;20.95;51.70;101263.44;5109258;28;19923;-72
2023/05/09 08:48:55;;;;;;;;;;;;;;;20.95;51.60;101254.50;5130463;27;19954;-73
2023/05/09 08:51:20;;;;;;;;;;;;;;;20.95;51.56;101249.91;5133690;27;19916;-73
2023/05/09 08:53:46;;;;;;;;;;;;;;;20.95;51.68;101249.09;5130045;27;19919;-72
2023/05/09 08:56:11;;;;;;;;;;;;;;;20.95;51.82;101252.63;5133484;27;19915;-72
2023/05/09 08:58:36;;;;;;;;;;;;;;;20.97;51.63;101244.31;5124004;28;19932;-72
2023/05/09 09:01:02;;;;;;;;;;;;;;;20.97;51.53;101245.16;5115596;28;19912;-72
2023/05/09 09:03:27;;;;;;;;;;;;;;;20.97;51.69;101238.91;5134307;28;19915;-72
2023/05/09 09:05:53;;;;;;;;;;;;;;;20.98;51.53;101248.72;5101706;28;19915;-72
2023/05/09 09:08:18;;;;;;;;;;;;;;;20.99;51.66;101239.59;5112725;28;19915;-72
2023/05/09 09:10:46;;;;;;;;;;;;;;;21.00;51.58;101226.94;5123912;28;19982;-73
2023/05/09 09:13:12;;;;;;;;;;;;;;;20.99;51.46;101223.38;5112018;28;19916;-73
2023/05/09 09:15:37;;;;;;;;;;;;;;;21.00;51.58;101218.81;5130970;28;19922;-73
2023/05/09 09:18:09;;;;;;;;;;;;;;;21.01;51.45;101217.78;5131638;28;19919;-73
2023/05/09 09:20:34;;;;;;;;;;;;;;;21.01;51.53;101234.84;5110749;28;19912;-73
2023/05/09 09:23:00;;;;;;;;;;;;;;;21.01;51.53;101217.78;5114234;28;20378;-73
2023/05/09 09:25:26;;;;;;;;;;;;;;;21.01;51.75;101207.81;5114413;28;19920;-72
2023/05/09 09:27:51;;;;;;;;;;;;;;;21.01;51.71;101210.53;5111464;28;20263;-73
2023/05/09 09:30:16;;;;;;;;;;;;;;;21.00;51.74;101208.00;5132844;28;19915;-72
2023/05/09 09:32:42;;;;;;;;;;;;;;;21.01;51.90;101204.28;5134042;28;19922;-72
2023/05/09 09:35:08;;;;;;;;;;;;;;;21.01;51.64;101206.97;5129707;28;20280;-71
2023/05/09 09:37:34;;;;;;;;;;;;;;;21.00;51.64;101199.91;5116040;28;19964;-72
2023/05/09 09:40:00;;;;;;;;;;;;;;;21.01;51.84;101193.47;5133040;27;19934;-72
2023/05/09 09:42:25;;;;;;;;;;;;;;;21.00;51.94;101197.19;5134778;27;19915;-72
2023/05/09 09:44:55;;;;;;;;;;;;;;;21.00;51.80;101191.78;5135148;27;19912;-72
2023/05/09 09:47:20;;;;;;;;;;;;;;;20.99;51.75;101193.66;5133320;27;20283;-72
2023/05/09 09:49:46;;;;;;;;;;;;;;;21.01;51.85;101201.56;5120252;27;19942;-72
2023/05/09 09:52:11;;;;;;;;;;;;;;;20.99;51.92;101196.34;5135005;27;19916;-71
2023/05/09 09:54:37;;;;;;;;;;;;;;;21.01;51.98;101201.56;5116364;27;19922;-72
2023/05/09 09:57:02;;;;;;;;;;;;;;;20.99;51.98;101192.81;5124851;27;19915;-72
2023/05/09 09:59:27;;;;;;;;;;;;;;;20.98;51.84;101191.94;5134479;27;19918;-72
2023/05/09 10:01:53;;;;;;;;;;;;;;;20.99;51.83;101195.53;5137208;27;19916;-72
2023/05/09 10:04:18;;;;;;;;;;;;;;;20.98;51.73;101186.53;5136601;27;19912;-72
2023/05/09 10:06:53;;;;;;;;;;;;;;;20.96;51.87;101178.63;5133437;27;19911;-72
2023/05/09 10:09:18;;;;;;;;;;;;;;;20.97;51.87;101179.44;5134751;27;19922;-73
2023/05/09 10:11:43;;;;;;;;;;;;;;;20.97;52.06;101184.84;5134880;27;19951;-72
2023/05/09 10:14:09;;;;;;;;;;;;;;;20.97;51.83;101192.97;5115017;27;19996;-71
2023/05/09 10:16:35;;;;;;;;;;;;;;;20.96;51.88;101191.28;5139567;27;20516;-71
2023/05/09 10:19:00;;;;;;;;;;;;;;;20.96;52.01;101185.88;5125080;27;19911;-72
2023/05/09 10:21:25;;;;;;;;;;;;;;;20.96;52.15;101185.88;5117957;27;20437;-73
2023/05/09 10:23:51;;;;;;;;;;;;;;;20.96;51.99;101184.03;5119176;27;19937;-71
2023/05/09 10:26:22;;;;;;;;;;;;;;;20.96;52.33;101189.44;5125609;28;19927;-72
2023/05/09 10:28:48;;;;;;;;;;;;;;;20.97;52.06;101180.28;5117275;27;19915;-72
2023/05/09 10:31:14;;;;;;;;;;;;;;;20.99;52.22;101182.00;5119489;27;19926;-72
2023/05/09 10:33:47;;;;;;;;;;;;;;;20.99;52.20;101171.19;5114753;27;19916;-73
2023/05/09 10:36:12;;;;;;;;;;;;;;;20.97;52.33;101171.34;5114950;27;19958;-73
2023/05/09 10:38:37;;;;;;;;;;;;;;;20.97;52.25;101166.78;5112122;28;19912;-73
2023/05/09 10:41:02;;;;;;;;;;;;;;;20.97;52.45;101153.25;5115914;27;19916;-72
2023/05/09 10:43:27;;;;;;;;;;;;;;;20.97;52.36;101155.97;5101301;28;19919;-73
2023/05/09 10:45:53;;;;;;;;;;;;;;;20.97;52.38;101161.38;5136469;27;19911;-72
2023/05/09 10:48:18;;;;;;;;;;;;;;;20.97;52.00;101155.97;5125941;28;19915;-73
2023/05/09 10:50:43;;;;;;;;;;;;;;;20.97;52.15;101157.81;5141580;27;19969;-73
2023/05/09 10:53:20;;;;;;;;;;;;;;;20.97;52.25;101155.13;5114709;27;19919;-72
2023/05/09 10:55:45;;;;;;;;;;;;;;;20.98;51.99;101154.09;5136071;27;19915;-72
2023/05/09 10:58:39;;;;;;;;;;;;;;;20.97;51.93;101134.34;5138536;27;19985;-73
2023/05/09 11:01:05;;;;;;;;;;;;;;;20.99;52.24;101149.56;5111834;27;20408;-73
2023/05/09 11:03:49;;;;;;;;;;;;;;;20.99;52.19;101133.34;5135981;27;19982;-72
2023/05/09 11:06:33;;;;;;;;;;;;;;;20.99;52.10;101126.06;5133290;27;19916;-73
2023/05/09 11:09:00;;;;;;;;;;;;;;;20.99;51.91;101128.78;5131142;27;19912;-73
2023/05/09 11:11:26;;;;;;;;;;;;;;;20.99;52.07;101123.38;5114496;27;20006;-74
2023/05/09 11:13:53;;;;;;;;;;;;;;;20.99;51.79;101131.47;5116339;28;19951;-71
2023/05/09 11:16:18;;;;;;;;;;;;;;;21.01;51.97;101128.59;5112640;28;20348;-72
2023/05/09 11:18:50;;;;;;;;;;;;;;;21.01;51.89;101123.19;5133142;27;19926;-73
2023/05/09 11:21:16;;;;;;;;;;;;;;;21.01;52.43;101124.03;5131983;27;19915;-73
2023/05/09 11:23:41;;;;;;;;;;;;;;;21.03;52.36;101123.88;5137399;27;19919;-72
2023/05/09 11:26:07;;;;;;;;;;;;;;;21.02;52.10;101114.03;5126111;27;19919;-74
2023/05/09 11:28:36;;;;;;;;;;;;;;;21.01;52.31;101118.63;5131579;27;20276;-73
2023/05/09 11:31:17;;;;;;;;;;;;;;;21.03;52.28;101118.47;5135420;27;19953;-73
2023/05/09 11:33:44;;;;;;;;;;;;;;;21.04;52.16;101114.72;5133103;27;19924;-73
2023/05/09 11:36:17;;;;;;;;;;;;;;;21.03;52.14;101111.19;5116217;27;19939;-71
2023/05/09 11:38:42;;;;;;;;;;;;;;;21.03;52.38;101111.19;5130095;27;20006;-72
2023/05/09 11:41:07;;;;;;;;;;;;;;;21.04;52.45;101109.31;5115112;27;20040;-72
2023/05/09 11:43:34;;;;;;;;;;;;;;;21.05;52.26;101108.28;5127565;27;19940;-71
2023/05/09 11:45:59;;;;;;;;;;;;;;;21.06;52.64;101107.25;5121574;27;20714;-72
2023/05/09 11:48:24;;;;;;;;;;;;;;;21.06;52.58;101102.69;5116142;27;19912;-73
2023/05/09 11:50:49;;;;;;;;;;;;;;;21.08;52.57;101107.94;5136479;27;19912;-72
2023/05/09 11:53:14;;;;;;;;;;;;;;;21.08;52.59;101097.13;5137353;27;19912;-72
2023/05/09 11:55:40;;;;;;;;;;;;;;;21.06;52.39;101097.28;5132545;27;20417;-73
2023/05/09 11:58:05;;;;;;;;;;;;;;;21.07;52.77;101098.13;5120764;27;19922;-72
2023/05/09 12:00:30;;;;;;;;;;;;;;;21.07;52.38;101096.28;5118929;28;19946;-72
2023/05/09 12:02:56;;;;;;;;;;;;;;;21.06;52.40;101096.44;5110973;27;20065;-71
2023/05/09 12:05:21;;;;;;;;;;;;;;;21.06;52.47;101097.28;5135479;27;19912;-73
2023/05/09 12:07:46;;;;;;;;;;;;;;;21.05;52.65;101092.91;5132992;27;19915;-72
2023/05/09 12:10:12;;;;;;;;;;;;;;;20.96;52.58;101075.06;5134491;27;20427;-73
2023/05/09 12:12:42;;;;;;;;;;;;;;;21.04;52.40;101093.09;5132662;27;19920;-72
2023/05/09 12:15:07;;;;;;;;;;;;;;;21.04;52.58;101085.00;5113953;28;20415;-72
2023/05/09 12:17:35;;;;;;;;;;;;;;;21.03;52.68;101091.44;5108053;28;19920;-72
2023/05/09 12:20:03;;;;;;;;;;;;;;;21.03;52.67;101083.31;5131478;27;19923;-72
2023/05/09 12:22:29;;;;;;;;;;;;;;;21.02;52.58;101090.56;5132258;27;19915;-72
2023/05/09 12:24:54;;;;;;;;;;;;;;;21.03;52.90;101080.63;5112898;28;20326;-72
2023/05/09 12:27:19;;;;;;;;;;;;;;;21.03;52.93;101080.63;5113961;27;19954;-72
2023/05/09 12:29:46;;;;;;;;;;;;;;;21.02;52.78;101085.16;5122483;27;19931;-71